Ambleside, United Kingdom
Current Conditions -  °F | °C
As of 10:50 AM on Monday 20 Oct 2014 (Local Time) from EGOM Reporting Station
Light Rain Light Rain  
Wind Chill: 41°   Ceiling: 200
Heat Index: 48°   Visibility: 4mi
Dew Point: 48°   Wind: 20mph
Humidity: 100%   Direction: 260°W
Pressure: 29.8"   Gusts: NA
Location:  54.43°N, 2.96°W
Report Text: EGOM 200950Z 26017KT 6000 -RA BKN002 09/09 Q1009 AMB
Loading
Personal Weather Stations






























Interactive Weather Map
Tropical Storm Tracking
New forecast layout! Learn more

10-Day Weather Forecast

Advertisements
Track Severe Weather on mobile